Terminal Aerodrome Forecast
Issued by NWS

Current Version | Previous Version | Text Only | Print | Product List | Glossary Off
Versions: 1 2 3 4 5 6 7 8 9 10 11 12 13 14 15 16 17 18 19 20 21 22 23

613
FTUS41 KPBZ 151749
TAFMGW
TAF
KMGW 151749Z 1518/1618 17008KT P6SM OVC060
     FM160000 15007KT P6SM VCSH OVC035
     FM160600 19006KT 3SM -SN OVC015
     FM160900 17006KT 1 1/2SM -SN OVC015
     FM161200 21005KT 3SM -SN OVC008=

USA.gov is the U.S. government's official web portal to all federal, state and local government web resources and services.